Portada
METAR-TAF:

METAR-TAF

Aeroports :

Orange Municipal Airport

Orange, Massachusetts, Estats Units d'Amèrica

latitud: 42-34-18N, longitud: 072-16-39W, altitud: 169 m

Observació

L'informe es va fer fa 49 minuts, a les 11:52 UTC
Vent 3 kt del Est
Temperatura 11°C
Humitat 100%
Pressió 1025 hPa
Visibilitat: 0.4 km
Cel ennuvolat a una alçada de 100 ft
boira

METAR: KORE 221152Z AUTO 08003KT 1/4SM FG BKN001 11/11 A3026 RMK AO2 SLP248 T01110111 10150 20100 51011

Hora: 08:41 (12:41 UTC)


TAF: manca

Observacions i pronòstics meteorològics de més de 4000 aeroports (METAR i TAF).

Les estacions disponibles són els punts grocs i vermells al mapa.

Posi el ratolí al punt desitjat per veure el nom de l'estació.

Feu clic per veure les observacions i els pronòstics meteorològics.

Per canviar el mapa: feu clic els botons verds amb una creu de color negre per apropar; al botó verd amb un guió per allunyar la imatge; o en les fletxes verdes per a mapes adjacents.


METAR-TAF: